Kandiyohi, Minnesota
Current Conditions -  °F | °C
As of 4:55 PM on Tuesday 27 Jan 2015 (Local Time) from KBDH Reporting Station
Overcast Overcast  
Wind Chill: 24°   Ceiling: 1000
Heat Index: 34°   Visibility: 10mi
Dew Point: 30°   Wind: 15mph
Humidity: 87%   Direction: 140°SE
Pressure: 30.07"   Gusts: 20mph
Location:  45.13°N, 94.93°W
Report Text: KBDH 272255Z AUTO 14013G17KT 10SM OVC010 01/M01 A3007 RMK AO2
Loading
Personal Weather Stations






























Interactive Weather Map New forecast layout! Learn more

10-Day Weather Forecast

Advertisements
Track Severe Weather on mobile